sensor_id;sensor_type;location;lat;lon;timestamp;P1;durP1;ratioP1;P2;durP2;ratioP2
36817;SDS011;22761;51.542;16.450;2023-12-14T00:02:06;44.10;;;27.40;;
36817;SDS011;22761;51.542;16.450;2023-12-14T00:04:34;41.70;;;25.90;;
36817;SDS011;22761;51.542;16.450;2023-12-14T00:07:02;44.00;;;27.70;;
36817;SDS011;22761;51.542;16.450;2023-12-14T00:09:30;46.10;;;28.20;;
36817;SDS011;22761;51.542;16.450;2023-12-14T00:11:59;43.50;;;26.90;;
36817;SDS011;22761;51.542;16.450;2023-12-14T00:14:27;44.00;;;27.40;;
36817;SDS011;22761;51.542;16.450;2023-12-14T00:16:55;48.20;;;29.40;;
36817;SDS011;22761;51.542;16.450;2023-12-14T00:19:27;50.80;;;30.00;;
36817;SDS011;22761;51.542;16.450;2023-12-14T00:21:55;50.90;;;30.00;;
36817;SDS011;22761;51.542;16.450;2023-12-14T00:24:23;50.80;;;29.00;;
36817;SDS011;22761;51.542;16.450;2023-12-14T00:26:51;48.90;;;29.70;;
36817;SDS011;22761;51.542;16.450;2023-12-14T00:29:19;54.90;;;31.50;;
36817;SDS011;22761;51.542;16.450;2023-12-14T00:31:48;55.20;;;31.60;;
36817;SDS011;22761;51.542;16.450;2023-12-14T00:34:16;55.30;;;32.70;;
36817;SDS011;22761;51.542;16.450;2023-12-14T00:36:44;58.90;;;33.30;;
36817;SDS011;22761;51.542;16.450;2023-12-14T00:39:12;58.30;;;33.80;;
36817;SDS011;22761;51.542;16.450;2023-12-14T00:41:41;59.80;;;33.40;;
36817;SDS011;22761;51.542;16.450;2023-12-14T00:44:09;63.50;;;34.80;;
36817;SDS011;22761;51.542;16.450;2023-12-14T00:46:37;63.90;;;35.60;;
36817;SDS011;22761;51.542;16.450;2023-12-14T00:49:05;67.10;;;34.90;;
36817;SDS011;22761;51.542;16.450;2023-12-14T00:51:33;71.50;;;37.80;;
36817;SDS011;22761;51.542;16.450;2023-12-14T00:54:02;69.30;;;38.10;;
36817;SDS011;22761;51.542;16.450;2023-12-14T00:56:30;76.60;;;39.10;;
36817;SDS011;22761;51.542;16.450;2023-12-14T00:58:58;69.30;;;37.70;;
36817;SDS011;22761;51.542;16.450;2023-12-14T01:01:26;75.20;;;38.00;;
36817;SDS011;22761;51.542;16.450;2023-12-14T01:03:55;79.70;;;41.10;;
36817;SDS011;22761;51.542;16.450;2023-12-14T01:06:23;101.60;;;49.00;;
36817;SDS011;22761;51.542;16.450;2023-12-14T01:08:51;111.40;;;53.20;;
36817;SDS011;22761;51.542;16.450;2023-12-14T01:11:19;106.10;;;49.40;;
36817;SDS011;22761;51.542;16.450;2023-12-14T01:13:47;101.90;;;48.60;;
36817;SDS011;22761;51.542;16.450;2023-12-14T01:16:15;109.00;;;51.10;;
36817;SDS011;22761;51.542;16.450;2023-12-14T01:18:43;102.10;;;49.90;;
36817;SDS011;22761;51.542;16.450;2023-12-14T01:21:12;108.80;;;50.30;;
36817;SDS011;22761;51.542;16.450;2023-12-14T01:23:40;99.00;;;46.80;;
36817;SDS011;22761;51.542;16.450;2023-12-14T01:26:08;98.10;;;48.40;;
36817;SDS011;22761;51.542;16.450;2023-12-14T01:28:36;101.20;;;46.00;;
36817;SDS011;22761;51.542;16.450;2023-12-14T01:31:04;100.60;;;45.70;;
36817;SDS011;22761;51.542;16.450;2023-12-14T01:33:33;95.80;;;44.80;;
36817;SDS011;22761;51.542;16.450;2023-12-14T01:36:01;98.70;;;46.00;;
36817;SDS011;22761;51.542;16.450;2023-12-14T01:38:29;102.30;;;45.40;;
36817;SDS011;22761;51.542;16.450;2023-12-14T01:40:57;93.30;;;43.70;;
36817;SDS011;22761;51.542;16.450;2023-12-14T01:43:27;95.90;;;44.80;;
36817;SDS011;22761;51.542;16.450;2023-12-14T01:45:55;86.30;;;43.30;;
36817;SDS011;22761;51.542;16.450;2023-12-14T01:48:23;86.00;;;41.60;;
36817;SDS011;22761;51.542;16.450;2023-12-14T01:50:52;87.70;;;41.90;;
36817;SDS011;22761;51.542;16.450;2023-12-14T01:53:20;93.30;;;42.90;;
36817;SDS011;22761;51.542;16.450;2023-12-14T01:55:48;77.20;;;37.80;;
36817;SDS011;22761;51.542;16.450;2023-12-14T01:58:17;87.80;;;39.50;;
36817;SDS011;22761;51.542;16.450;2023-12-14T02:03:46;75.40;;;38.40;;
36817;SDS011;22761;51.542;16.450;2023-12-14T02:06:19;75.40;;;35.70;;
36817;SDS011;22761;51.542;16.450;2023-12-14T02:08:47;69.20;;;34.60;;
36817;SDS011;22761;51.542;16.450;2023-12-14T02:11:15;78.20;;;36.40;;
36817;SDS011;22761;51.542;16.450;2023-12-14T02:13:44;70.50;;;35.20;;
36817;SDS011;22761;51.542;16.450;2023-12-14T02:16:12;67.20;;;35.50;;
36817;SDS011;22761;51.542;16.450;2023-12-14T02:18:40;75.00;;;36.20;;
36817;SDS011;22761;51.542;16.450;2023-12-14T02:21:09;77.80;;;35.60;;
36817;SDS011;22761;51.542;16.450;2023-12-14T02:23:43;71.50;;;34.20;;
36817;SDS011;22761;51.542;16.450;2023-12-14T02:26:12;72.50;;;35.80;;
36817;SDS011;22761;51.542;16.450;2023-12-14T02:28:41;72.20;;;34.50;;
36817;SDS011;22761;51.542;16.450;2023-12-14T02:31:09;70.50;;;34.70;;
36817;SDS011;22761;51.542;16.450;2023-12-14T02:33:38;78.50;;;35.70;;
36817;SDS011;22761;51.542;16.450;2023-12-14T02:36:07;75.40;;;34.80;;
36817;SDS011;22761;51.542;16.450;2023-12-14T02:38:35;69.80;;;33.80;;
36817;SDS011;22761;51.542;16.450;2023-12-14T02:41:04;71.60;;;34.00;;
36817;SDS011;22761;51.542;16.450;2023-12-14T02:43:32;69.40;;;33.30;;
36817;SDS011;22761;51.542;16.450;2023-12-14T02:46:01;72.80;;;35.80;;
36817;SDS011;22761;51.542;16.450;2023-12-14T02:48:30;77.80;;;35.30;;
36817;SDS011;22761;51.542;16.450;2023-12-14T02:50:59;76.90;;;35.40;;
36817;SDS011;22761;51.542;16.450;2023-12-14T02:53:30;77.60;;;36.40;;
36817;SDS011;22761;51.542;16.450;2023-12-14T02:56:01;78.20;;;35.40;;
36817;SDS011;22761;51.542;16.450;2023-12-14T02:58:29;75.80;;;36.80;;
36817;SDS011;22761;51.542;16.450;2023-12-14T03:00:58;76.90;;;34.50;;
36817;SDS011;22761;51.542;16.450;2023-12-14T03:03:26;79.00;;;35.50;;
36817;SDS011;22761;51.542;16.450;2023-12-14T03:05:54;73.00;;;33.60;;
36817;SDS011;22761;51.542;16.450;2023-12-14T03:08:23;74.90;;;33.90;;
36817;SDS011;22761;51.542;16.450;2023-12-14T03:10:51;71.50;;;33.40;;
36817;SDS011;22761;51.542;16.450;2023-12-14T03:13:19;74.40;;;34.20;;
36817;SDS011;22761;51.542;16.450;2023-12-14T03:15:48;71.00;;;32.60;;
36817;SDS011;22761;51.542;16.450;2023-12-14T03:18:17;79.50;;;33.10;;
36817;SDS011;22761;51.542;16.450;2023-12-14T03:20:45;79.90;;;34.60;;
36817;SDS011;22761;51.542;16.450;2023-12-14T03:23:14;81.80;;;33.80;;
36817;SDS011;22761;51.542;16.450;2023-12-14T03:25:42;74.20;;;33.80;;
36817;SDS011;22761;51.542;16.450;2023-12-14T03:28:10;81.60;;;32.90;;
36817;SDS011;22761;51.542;16.450;2023-12-14T03:30:38;77.60;;;34.20;;
36817;SDS011;22761;51.542;16.450;2023-12-14T03:33:07;77.70;;;32.60;;
36817;SDS011;22761;51.542;16.450;2023-12-14T03:35:36;80.70;;;33.80;;
36817;SDS011;22761;51.542;16.450;2023-12-14T03:38:04;72.10;;;32.70;;
36817;SDS011;22761;51.542;16.450;2023-12-14T03:40:33;73.20;;;33.10;;
36817;SDS011;22761;51.542;16.450;2023-12-14T03:43:01;71.90;;;33.30;;
36817;SDS011;22761;51.542;16.450;2023-12-14T03:45:31;72.50;;;32.40;;
36817;SDS011;22761;51.542;16.450;2023-12-14T03:47:59;75.00;;;32.80;;
36817;SDS011;22761;51.542;16.450;2023-12-14T03:50:27;77.70;;;33.00;;
36817;SDS011;22761;51.542;16.450;2023-12-14T03:52:56;66.80;;;30.20;;
36817;SDS011;22761;51.542;16.450;2023-12-14T03:55:25;72.90;;;33.10;;
36817;SDS011;22761;51.542;16.450;2023-12-14T03:57:53;66.10;;;31.80;;
36817;SDS011;22761;51.542;16.450;2023-12-14T04:00:21;61.20;;;29.80;;
36817;SDS011;22761;51.542;16.450;2023-12-14T04:02:49;72.80;;;31.80;;
36817;SDS011;22761;51.542;16.450;2023-12-14T04:05:18;70.30;;;30.30;;
36817;SDS011;22761;51.542;16.450;2023-12-14T04:07:46;61.20;;;30.00;;
36817;SDS011;22761;51.542;16.450;2023-12-14T04:10:14;77.00;;;32.40;;
36817;SDS011;22761;51.542;16.450;2023-12-14T04:12:43;70.60;;;31.60;;
36817;SDS011;22761;51.542;16.450;2023-12-14T04:15:11;69.60;;;30.50;;
36817;SDS011;22761;51.542;16.450;2023-12-14T04:17:40;69.10;;;30.70;;
36817;SDS011;22761;51.542;16.450;2023-12-14T04:20:08;68.00;;;31.80;;
36817;SDS011;22761;51.542;16.450;2023-12-14T04:22:37;68.80;;;30.50;;
36817;SDS011;22761;51.542;16.450;2023-12-14T04:25:06;64.50;;;30.30;;
36817;SDS011;22761;51.542;16.450;2023-12-14T04:27:34;72.70;;;30.60;;
36817;SDS011;22761;51.542;16.450;2023-12-14T04:30:03;65.20;;;28.70;;
36817;SDS011;22761;51.542;16.450;2023-12-14T04:32:32;73.10;;;31.80;;
36817;SDS011;22761;51.542;16.450;2023-12-14T04:35:01;66.60;;;30.30;;
36817;SDS011;22761;51.542;16.450;2023-12-14T04:37:29;67.90;;;30.70;;
36817;SDS011;22761;51.542;16.450;2023-12-14T04:39:59;69.80;;;30.30;;
36817;SDS011;22761;51.542;16.450;2023-12-14T04:42:27;69.60;;;31.10;;
36817;SDS011;22761;51.542;16.450;2023-12-14T04:44:55;68.10;;;30.70;;
36817;SDS011;22761;51.542;16.450;2023-12-14T04:47:23;65.30;;;28.90;;
36817;SDS011;22761;51.542;16.450;2023-12-14T04:49:51;68.30;;;31.00;;
36817;SDS011;22761;51.542;16.450;2023-12-14T04:52:20;62.10;;;28.20;;
36817;SDS011;22761;51.542;16.450;2023-12-14T04:54:48;66.70;;;29.40;;
36817;SDS011;22761;51.542;16.450;2023-12-14T04:57:16;67.50;;;30.60;;
36817;SDS011;22761;51.542;16.450;2023-12-14T04:59:44;71.50;;;32.50;;
36817;SDS011;22761;51.542;16.450;2023-12-14T05:02:12;68.30;;;30.70;;
36817;SDS011;22761;51.542;16.450;2023-12-14T05:04:41;71.00;;;30.50;;
36817;SDS011;22761;51.542;16.450;2023-12-14T05:07:09;66.40;;;30.40;;
36817;SDS011;22761;51.542;16.450;2023-12-14T05:09:37;66.30;;;28.60;;
36817;SDS011;22761;51.542;16.450;2023-12-14T05:12:05;66.00;;;29.10;;
36817;SDS011;22761;51.542;16.450;2023-12-14T05:14:34;66.90;;;29.90;;
36817;SDS011;22761;51.542;16.450;2023-12-14T05:17:02;70.20;;;29.70;;
36817;SDS011;22761;51.542;16.450;2023-12-14T05:19:32;70.00;;;30.00;;
36817;SDS011;22761;51.542;16.450;2023-12-14T05:22:04;64.60;;;29.00;;
36817;SDS011;22761;51.542;16.450;2023-12-14T05:24:32;61.30;;;28.50;;
36817;SDS011;22761;51.542;16.450;2023-12-14T05:27:00;57.50;;;28.20;;
36817;SDS011;22761;51.542;16.450;2023-12-14T05:29:28;56.40;;;26.80;;
36817;SDS011;22761;51.542;16.450;2023-12-14T05:31:56;68.20;;;29.70;;
36817;SDS011;22761;51.542;16.450;2023-12-14T05:34:25;70.30;;;31.10;;
36817;SDS011;22761;51.542;16.450;2023-12-14T05:36:53;62.10;;;28.80;;
36817;SDS011;22761;51.542;16.450;2023-12-14T05:39:21;60.40;;;27.80;;
36817;SDS011;22761;51.542;16.450;2023-12-14T05:41:49;56.60;;;27.00;;
36817;SDS011;22761;51.542;16.450;2023-12-14T05:44:18;53.70;;;25.30;;
36817;SDS011;22761;51.542;16.450;2023-12-14T05:46:46;53.70;;;25.00;;
36817;SDS011;22761;51.542;16.450;2023-12-14T05:49:15;58.20;;;25.60;;
36817;SDS011;22761;51.542;16.450;2023-12-14T05:51:43;54.10;;;25.20;;
36817;SDS011;22761;51.542;16.450;2023-12-14T05:54:11;55.50;;;26.40;;
36817;SDS011;22761;51.542;16.450;2023-12-14T05:56:40;54.40;;;26.10;;
36817;SDS011;22761;51.542;16.450;2023-12-14T05:59:09;53.10;;;24.50;;
36817;SDS011;22761;51.542;16.450;2023-12-14T06:01:38;54.80;;;25.00;;
36817;SDS011;22761;51.542;16.450;2023-12-14T06:04:06;54.80;;;25.10;;
36817;SDS011;22761;51.542;16.450;2023-12-14T06:06:34;55.60;;;25.00;;
36817;SDS011;22761;51.542;16.450;2023-12-14T06:09:06;55.20;;;26.80;;
36817;SDS011;22761;51.542;16.450;2023-12-14T06:11:35;60.30;;;25.40;;
36817;SDS011;22761;51.542;16.450;2023-12-14T06:14:04;50.20;;;24.70;;
36817;SDS011;22761;51.542;16.450;2023-12-14T06:16:32;52.70;;;25.50;;
36817;SDS011;22761;51.542;16.450;2023-12-14T06:19:01;49.50;;;24.40;;
36817;SDS011;22761;51.542;16.450;2023-12-14T06:21:29;52.70;;;24.60;;
36817;SDS011;22761;51.542;16.450;2023-12-14T06:23:57;44.00;;;22.80;;
36817;SDS011;22761;51.542;16.450;2023-12-14T06:26:27;46.40;;;23.00;;
36817;SDS011;22761;51.542;16.450;2023-12-14T06:28:55;41.20;;;21.80;;
36817;SDS011;22761;51.542;16.450;2023-12-14T06:31:24;41.80;;;21.00;;
36817;SDS011;22761;51.542;16.450;2023-12-14T06:33:52;39.30;;;21.10;;
36817;SDS011;22761;51.542;16.450;2023-12-14T06:36:23;43.20;;;21.40;;
36817;SDS011;22761;51.542;16.450;2023-12-14T06:38:54;39.20;;;20.70;;
36817;SDS011;22761;51.542;16.450;2023-12-14T06:41:23;38.20;;;20.80;;
36817;SDS011;22761;51.542;16.450;2023-12-14T06:43:53;39.00;;;19.80;;
36817;SDS011;22761;51.542;16.450;2023-12-14T06:46:22;37.60;;;19.20;;
36817;SDS011;22761;51.542;16.450;2023-12-14T06:48:50;31.00;;;18.90;;
36817;SDS011;22761;51.542;16.450;2023-12-14T06:51:19;35.50;;;18.60;;
36817;SDS011;22761;51.542;16.450;2023-12-14T06:53:47;34.80;;;19.10;;
36817;SDS011;22761;51.542;16.450;2023-12-14T06:56:16;35.00;;;18.80;;
36817;SDS011;22761;51.542;16.450;2023-12-14T06:58:44;36.70;;;19.80;;
36817;SDS011;22761;51.542;16.450;2023-12-14T07:01:13;34.60;;;18.30;;
36817;SDS011;22761;51.542;16.450;2023-12-14T07:03:43;33.50;;;18.90;;
36817;SDS011;22761;51.542;16.450;2023-12-14T07:06:13;35.60;;;18.30;;
36817;SDS011;22761;51.542;16.450;2023-12-14T07:08:42;38.40;;;18.90;;
36817;SDS011;22761;51.542;16.450;2023-12-14T07:11:11;36.00;;;19.40;;
36817;SDS011;22761;51.542;16.450;2023-12-14T07:13:40;34.40;;;18.40;;
36817;SDS011;22761;51.542;16.450;2023-12-14T07:16:09;31.50;;;18.00;;
36817;SDS011;22761;51.542;16.450;2023-12-14T07:18:40;32.90;;;19.10;;
36817;SDS011;22761;51.542;16.450;2023-12-14T07:21:09;34.60;;;19.80;;
36817;SDS011;22761;51.542;16.450;2023-12-14T07:23:38;31.60;;;18.70;;
36817;SDS011;22761;51.542;16.450;2023-12-14T07:26:06;33.00;;;19.00;;
36817;SDS011;22761;51.542;16.450;2023-12-14T07:28:35;34.50;;;19.10;;
36817;SDS011;22761;51.542;16.450;2023-12-14T07:31:04;33.90;;;18.40;;
36817;SDS011;22761;51.542;16.450;2023-12-14T07:33:32;33.80;;;19.70;;
36817;SDS011;22761;51.542;16.450;2023-12-14T07:36:01;32.40;;;18.70;;
36817;SDS011;22761;51.542;16.450;2023-12-14T07:38:29;33.20;;;19.10;;
36817;SDS011;22761;51.542;16.450;2023-12-14T07:40:58;31.90;;;18.70;;
36817;SDS011;22761;51.542;16.450;2023-12-14T07:43:26;33.20;;;19.40;;
36817;SDS011;22761;51.542;16.450;2023-12-14T07:45:54;34.70;;;18.90;;
36817;SDS011;22761;51.542;16.450;2023-12-14T07:48:23;37.50;;;19.90;;
36817;SDS011;22761;51.542;16.450;2023-12-14T07:50:51;33.10;;;19.00;;
36817;SDS011;22761;51.542;16.450;2023-12-14T07:53:19;34.50;;;19.60;;
36817;SDS011;22761;51.542;16.450;2023-12-14T07:55:48;35.40;;;18.80;;
36817;SDS011;22761;51.542;16.450;2023-12-14T07:58:16;37.10;;;20.10;;
36817;SDS011;22761;51.542;16.450;2023-12-14T08:00:45;35.80;;;20.70;;
36817;SDS011;22761;51.542;16.450;2023-12-14T08:03:13;35.00;;;19.80;;
36817;SDS011;22761;51.542;16.450;2023-12-14T08:05:41;33.90;;;19.40;;
36817;SDS011;22761;51.542;16.450;2023-12-14T08:08:10;36.10;;;20.70;;
36817;SDS011;22761;51.542;16.450;2023-12-14T08:10:38;36.20;;;19.90;;
36817;SDS011;22761;51.542;16.450;2023-12-14T08:13:06;36.00;;;21.10;;
36817;SDS011;22761;51.542;16.450;2023-12-14T08:15:34;38.40;;;20.90;;
36817;SDS011;22761;51.542;16.450;2023-12-14T08:18:03;36.90;;;20.90;;
36817;SDS011;22761;51.542;16.450;2023-12-14T08:20:32;35.10;;;19.80;;
36817;SDS011;22761;51.542;16.450;2023-12-14T08:23:00;34.30;;;19.80;;
36817;SDS011;22761;51.542;16.450;2023-12-14T08:25:28;36.90;;;20.20;;
36817;SDS011;22761;51.542;16.450;2023-12-14T08:27:57;33.90;;;20.80;;
36817;SDS011;22761;51.542;16.450;2023-12-14T08:30:26;39.10;;;21.40;;
36817;SDS011;22761;51.542;16.450;2023-12-14T08:32:55;36.90;;;21.20;;
36817;SDS011;22761;51.542;16.450;2023-12-14T08:35:23;38.00;;;22.20;;
36817;SDS011;22761;51.542;16.450;2023-12-14T08:37:51;32.60;;;20.50;;
36817;SDS011;22761;51.542;16.450;2023-12-14T08:40:19;38.80;;;21.40;;
36817;SDS011;22761;51.542;16.450;2023-12-14T08:42:48;38.60;;;21.60;;
36817;SDS011;22761;51.542;16.450;2023-12-14T08:45:16;39.90;;;21.30;;
36817;SDS011;22761;51.542;16.450;2023-12-14T08:47:45;37.90;;;20.80;;
36817;SDS011;22761;51.542;16.450;2023-12-14T08:50:13;40.40;;;22.80;;
36817;SDS011;22761;51.542;16.450;2023-12-14T08:52:41;36.60;;;22.30;;
36817;SDS011;22761;51.542;16.450;2023-12-14T08:55:10;37.00;;;21.60;;
36817;SDS011;22761;51.542;16.450;2023-12-14T08:57:38;37.60;;;22.80;;
36817;SDS011;22761;51.542;16.450;2023-12-14T09:00:07;37.40;;;22.10;;
36817;SDS011;22761;51.542;16.450;2023-12-14T09:02:35;33.70;;;21.30;;
36817;SDS011;22761;51.542;16.450;2023-12-14T09:05:04;34.50;;;20.60;;
36817;SDS011;22761;51.542;16.450;2023-12-14T09:07:34;37.20;;;21.80;;
36817;SDS011;22761;51.542;16.450;2023-12-14T09:10:02;39.00;;;22.60;;
36817;SDS011;22761;51.542;16.450;2023-12-14T09:12:30;35.00;;;20.40;;
36817;SDS011;22761;51.542;16.450;2023-12-14T09:15:00;39.20;;;23.40;;
36817;SDS011;22761;51.542;16.450;2023-12-14T09:17:29;39.90;;;22.80;;
36817;SDS011;22761;51.542;16.450;2023-12-14T09:20:04;39.00;;;21.90;;
36817;SDS011;22761;51.542;16.450;2023-12-14T09:22:33;41.20;;;22.80;;
36817;SDS011;22761;51.542;16.450;2023-12-14T09:25:02;35.90;;;20.30;;
36817;SDS011;22761;51.542;16.450;2023-12-14T09:27:31;32.40;;;18.40;;
36817;SDS011;22761;51.542;16.450;2023-12-14T09:29:59;29.60;;;19.00;;
36817;SDS011;22761;51.542;16.450;2023-12-14T09:32:27;32.50;;;19.50;;
36817;SDS011;22761;51.542;16.450;2023-12-14T09:34:56;32.20;;;19.70;;
36817;SDS011;22761;51.542;16.450;2023-12-14T09:37:24;32.60;;;19.20;;
36817;SDS011;22761;51.542;16.450;2023-12-14T09:39:53;32.10;;;19.50;;
36817;SDS011;22761;51.542;16.450;2023-12-14T09:42:21;32.20;;;19.20;;
36817;SDS011;22761;51.542;16.450;2023-12-14T09:44:50;32.90;;;18.80;;
36817;SDS011;22761;51.542;16.450;2023-12-14T09:47:18;32.50;;;18.80;;
36817;SDS011;22761;51.542;16.450;2023-12-14T09:49:47;33.70;;;21.70;;
36817;SDS011;22761;51.542;16.450;2023-12-14T09:52:16;30.30;;;18.50;;
36817;SDS011;22761;51.542;16.450;2023-12-14T09:54:44;30.70;;;18.10;;
36817;SDS011;22761;51.542;16.450;2023-12-14T09:57:12;28.80;;;18.30;;
36817;SDS011;22761;51.542;16.450;2023-12-14T09:59:40;34.10;;;19.30;;
36817;SDS011;22761;51.542;16.450;2023-12-14T10:02:10;29.20;;;18.30;;
36817;SDS011;22761;51.542;16.450;2023-12-14T10:04:39;29.00;;;17.90;;
36817;SDS011;22761;51.542;16.450;2023-12-14T10:07:08;31.50;;;19.40;;
36817;SDS011;22761;51.542;16.450;2023-12-14T10:09:37;30.60;;;18.40;;
36817;SDS011;22761;51.542;16.450;2023-12-14T10:12:06;28.30;;;17.30;;
36817;SDS011;22761;51.542;16.450;2023-12-14T10:14:36;31.80;;;18.30;;
36817;SDS011;22761;51.542;16.450;2023-12-14T10:17:18;31.80;;;18.40;;
36817;SDS011;22761;51.542;16.450;2023-12-14T10:19:48;32.60;;;17.80;;
36817;SDS011;22761;51.542;16.450;2023-12-14T10:22:17;56.90;;;31.20;;
36817;SDS011;22761;51.542;16.450;2023-12-14T10:24:46;38.00;;;21.40;;
36817;SDS011;22761;51.542;16.450;2023-12-14T10:27:15;33.00;;;20.30;;
36817;SDS011;22761;51.542;16.450;2023-12-14T10:29:44;33.80;;;19.40;;
36817;SDS011;22761;51.542;16.450;2023-12-14T10:32:13;40.90;;;22.30;;
36817;SDS011;22761;51.542;16.450;2023-12-14T10:34:42;31.40;;;19.50;;
36817;SDS011;22761;51.542;16.450;2023-12-14T10:37:10;32.70;;;19.90;;
36817;SDS011;22761;51.542;16.450;2023-12-14T10:39:40;33.80;;;20.00;;
36817;SDS011;22761;51.542;16.450;2023-12-14T10:42:10;30.90;;;18.70;;
36817;SDS011;22761;51.542;16.450;2023-12-14T10:44:49;27.40;;;17.10;;
36817;SDS011;22761;51.542;16.450;2023-12-14T10:47:23;28.60;;;18.00;;
36817;SDS011;22761;51.542;16.450;2023-12-14T10:49:52;30.30;;;17.90;;
36817;SDS011;22761;51.542;16.450;2023-12-14T10:52:21;28.20;;;17.60;;
36817;SDS011;22761;51.542;16.450;2023-12-14T10:54:52;26.00;;;16.30;;
36817;SDS011;22761;51.542;16.450;2023-12-14T10:57:24;23.70;;;13.20;;
36817;SDS011;22761;51.542;16.450;2023-12-14T10:59:59;20.20;;;12.70;;
36817;SDS011;22761;51.542;16.450;2023-12-14T11:02:28;19.40;;;12.20;;
36817;SDS011;22761;51.542;16.450;2023-12-14T11:05:00;28.50;;;16.20;;
36817;SDS011;22761;51.542;16.450;2023-12-14T11:07:43;22.70;;;14.10;;
36817;SDS011;22761;51.542;16.450;2023-12-14T11:10:25;24.90;;;14.60;;
36817;SDS011;22761;51.542;16.450;2023-12-14T11:13:02;22.80;;;13.50;;
36817;SDS011;22761;51.542;16.450;2023-12-14T11:15:35;22.90;;;14.20;;
36817;SDS011;22761;51.542;16.450;2023-12-14T11:23:14;24.60;;;15.30;;
36817;SDS011;22761;51.542;16.450;2023-12-14T11:25:49;28.10;;;16.50;;
36817;SDS011;22761;51.542;16.450;2023-12-14T11:28:26;31.10;;;16.90;;
36817;SDS011;22761;51.542;16.450;2023-12-14T11:30:57;31.00;;;17.30;;
36817;SDS011;22761;51.542;16.450;2023-12-14T11:33:26;30.70;;;17.90;;
36817;SDS011;22761;51.542;16.450;2023-12-14T11:35:57;27.90;;;17.30;;
36817;SDS011;22761;51.542;16.450;2023-12-14T11:38:25;29.50;;;17.30;;
36817;SDS011;22761;51.542;16.450;2023-12-14T11:40:54;28.40;;;17.10;;
36817;SDS011;22761;51.542;16.450;2023-12-14T11:43:22;25.70;;;16.00;;
36817;SDS011;22761;51.542;16.450;2023-12-14T11:45:53;32.40;;;17.70;;
36817;SDS011;22761;51.542;16.450;2023-12-14T11:48:23;36.90;;;21.30;;
36817;SDS011;22761;51.542;16.450;2023-12-14T11:50:51;27.50;;;16.30;;
36817;SDS011;22761;51.542;16.450;2023-12-14T11:53:20;25.80;;;15.40;;
36817;SDS011;22761;51.542;16.450;2023-12-14T11:55:48;29.20;;;17.40;;
36817;SDS011;22761;51.542;16.450;2023-12-14T11:58:17;35.10;;;20.50;;
36817;SDS011;22761;51.542;16.450;2023-12-14T12:00:45;30.90;;;17.40;;
36817;SDS011;22761;51.542;16.450;2023-12-14T12:03:16;32.60;;;17.50;;
36817;SDS011;22761;51.542;16.450;2023-12-14T12:05:49;45.60;;;26.50;;
36817;SDS011;22761;51.542;16.450;2023-12-14T12:08:19;49.10;;;28.20;;
36817;SDS011;22761;51.542;16.450;2023-12-14T12:10:49;31.90;;;17.30;;
36817;SDS011;22761;51.542;16.450;2023-12-14T12:15:48;37.30;;;20.20;;
36817;SDS011;22761;51.542;16.450;2023-12-14T12:18:16;33.30;;;19.70;;
36817;SDS011;22761;51.542;16.450;2023-12-14T12:20:46;42.20;;;23.10;;
36817;SDS011;22761;51.542;16.450;2023-12-14T12:23:15;42.60;;;23.80;;
36817;SDS011;22761;51.542;16.450;2023-12-14T12:25:44;37.30;;;20.60;;
36817;SDS011;22761;51.542;16.450;2023-12-14T12:28:12;30.60;;;19.10;;
36817;SDS011;22761;51.542;16.450;2023-12-14T12:30:40;35.00;;;21.90;;
36817;SDS011;22761;51.542;16.450;2023-12-14T12:33:10;37.60;;;22.00;;
36817;SDS011;22761;51.542;16.450;2023-12-14T12:35:38;42.20;;;23.80;;
36817;SDS011;22761;51.542;16.450;2023-12-14T12:38:06;37.30;;;21.60;;
36817;SDS011;22761;51.542;16.450;2023-12-14T12:40:35;33.90;;;19.20;;
36817;SDS011;22761;51.542;16.450;2023-12-14T12:43:03;26.20;;;16.30;;
36817;SDS011;22761;51.542;16.450;2023-12-14T12:45:31;27.30;;;19.20;;
36817;SDS011;22761;51.542;16.450;2023-12-14T12:48:00;31.60;;;20.00;;
36817;SDS011;22761;51.542;16.450;2023-12-14T12:52:59;30.20;;;20.10;;
36817;SDS011;22761;51.542;16.450;2023-12-14T12:55:28;27.40;;;18.80;;
36817;SDS011;22761;51.542;16.450;2023-12-14T12:57:56;30.50;;;20.20;;
36817;SDS011;22761;51.542;16.450;2023-12-14T13:00:25;25.40;;;17.50;;
36817;SDS011;22761;51.542;16.450;2023-12-14T13:02:54;24.10;;;16.40;;
36817;SDS011;22761;51.542;16.450;2023-12-14T13:05:22;23.10;;;16.40;;
36817;SDS011;22761;51.542;16.450;2023-12-14T13:07:53;24.30;;;16.50;;
36817;SDS011;22761;51.542;16.450;2023-12-14T13:10:22;23.50;;;15.60;;
36817;SDS011;22761;51.542;16.450;2023-12-14T13:12:59;33.30;;;19.10;;
36817;SDS011;22761;51.542;16.450;2023-12-14T13:15:27;30.50;;;18.20;;
36817;SDS011;22761;51.542;16.450;2023-12-14T13:17:57;30.70;;;18.40;;
36817;SDS011;22761;51.542;16.450;2023-12-14T13:20:27;31.00;;;19.30;;
36817;SDS011;22761;51.542;16.450;2023-12-14T13:22:55;35.10;;;20.10;;
36817;SDS011;22761;51.542;16.450;2023-12-14T13:25:23;32.30;;;18.90;;
36817;SDS011;22761;51.542;16.450;2023-12-14T13:27:54;41.50;;;22.70;;
36817;SDS011;22761;51.542;16.450;2023-12-14T13:30:22;42.80;;;23.40;;
36817;SDS011;22761;51.542;16.450;2023-12-14T13:32:51;30.80;;;20.00;;
36817;SDS011;22761;51.542;16.450;2023-12-14T13:35:22;30.40;;;18.30;;
36817;SDS011;22761;51.542;16.450;2023-12-14T13:40:21;30.60;;;19.10;;
36817;SDS011;22761;51.542;16.450;2023-12-14T13:42:49;25.90;;;16.80;;
36817;SDS011;22761;51.542;16.450;2023-12-14T13:45:33;23.80;;;16.30;;
36817;SDS011;22761;51.542;16.450;2023-12-14T13:48:01;29.60;;;18.60;;
36817;SDS011;22761;51.542;16.450;2023-12-14T13:50:30;28.80;;;17.90;;
36817;SDS011;22761;51.542;16.450;2023-12-14T13:52:58;26.90;;;17.30;;
36817;SDS011;22761;51.542;16.450;2023-12-14T13:55:27;33.50;;;19.90;;
36817;SDS011;22761;51.542;16.450;2023-12-14T13:57:56;32.00;;;22.00;;
36817;SDS011;22761;51.542;16.450;2023-12-14T14:00:26;42.30;;;26.50;;
36817;SDS011;22761;51.542;16.450;2023-12-14T14:02:54;37.50;;;23.50;;
36817;SDS011;22761;51.542;16.450;2023-12-14T14:05:23;37.60;;;24.30;;
36817;SDS011;22761;51.542;16.450;2023-12-14T14:07:52;36.70;;;22.70;;
36817;SDS011;22761;51.542;16.450;2023-12-14T14:10:20;24.40;;;17.00;;
36817;SDS011;22761;51.542;16.450;2023-12-14T14:12:48;32.70;;;21.60;;
36817;SDS011;22761;51.542;16.450;2023-12-14T14:15:17;25.50;;;16.80;;
36817;SDS011;22761;51.542;16.450;2023-12-14T14:17:47;31.40;;;22.40;;
36817;SDS011;22761;51.542;16.450;2023-12-14T14:20:20;24.80;;;17.20;;
36817;SDS011;22761;51.542;16.450;2023-12-14T14:22:50;23.50;;;15.90;;
36817;SDS011;22761;51.542;16.450;2023-12-14T14:25:18;25.60;;;17.60;;
36817;SDS011;22761;51.542;16.450;2023-12-14T14:27:46;20.80;;;15.50;;
36817;SDS011;22761;51.542;16.450;2023-12-14T14:30:14;21.90;;;14.60;;
36817;SDS011;22761;51.542;16.450;2023-12-14T14:32:44;22.70;;;15.60;;
36817;SDS011;22761;51.542;16.450;2023-12-14T14:35:13;22.60;;;15.60;;